Time;durP1;ratioP1;P1;durP2;ratioP2;P2;SDS_P1;SDS_P2;PMS_P1;PMS_P2;Temp;Humidity;BMP_temperature;BMP_pressure;BME280_temperature;BME280_humidity;BME280_pressure;Samples;Min_cycle;Max_cycle;Signal;HPM_P1;HPM_P2
2024/01/20 00:01:03;;;;;;;3.58;2.20;;;;;;;0.46;97.03;102730.50;5058376;27;96669;-29
2024/01/20 00:03:29;;;;;;;2.05;1.42;;;;;;;0.45;96.38;102719.78;5058555;27;96534;-27
2024/01/20 00:05:54;;;;;;;4.72;2.63;;;;;;;0.38;96.38;102722.41;5058033;27;98974;-28
2024/01/20 00:08:19;;;;;;;2.60;1.98;;;;;;;0.37;96.39;102731.28;5058318;27;97814;-27
2024/01/20 00:10:46;;;;;;;5.72;3.72;;;;;;;0.22;96.90;102727.56;5058548;27;96753;-28
2024/01/20 00:13:11;;;;;;;5.60;1.85;;;;;;;0.14;97.26;102733.69;5058605;27;97061;-28
2024/01/20 00:15:36;;;;;;;0.50;0.43;;;;;;;0.13;97.67;102742.53;5058152;27;97090;-27
2024/01/20 00:18:03;;;;;;;3.63;0.88;;;;;;;0.10;97.85;102742.50;5058115;27;104216;-27
2024/01/20 00:20:29;;;;;;;1.55;1.45;;;;;;;0.08;98.12;102749.59;5057000;27;96632;-28
2024/01/20 00:22:54;;;;;;;5.25;2.45;;;;;;;0.02;97.87;102733.50;5058681;27;96824;-27
2024/01/20 00:25:20;;;;;;;5.22;2.78;;;;;;;0.01;98.64;102744.19;5057204;27;99207;-28
2024/01/20 00:27:46;;;;;;;1.90;1.60;;;;;;;0.02;98.41;102749.50;5056576;27;101011;-27
2024/01/20 00:30:12;;;;;;;1.45;1.10;;;;;;;-0.05;98.24;102748.56;5056778;27;96784;-27
2024/01/20 00:32:37;;;;;;;3.35;2.67;;;;;;;-0.07;98.29;102757.38;5058126;27;96862;-27
2024/01/20 00:35:03;;;;;;;2.10;1.83;;;;;;;-0.06;98.82;102752.06;5057755;27;97788;-27
2024/01/20 00:37:29;;;;;;;5.13;2.67;;;;;;;-0.01;98.30;102747.69;5056339;27;99119;-27
2024/01/20 00:39:54;;;;;;;1.13;0.95;;;;;;;0.11;98.03;102754.94;5058273;27;96678;-28
2024/01/20 00:42:20;;;;;;;4.15;3.40;;;;;;;0.04;97.75;102744.19;5058263;27;96803;-27
2024/01/20 00:44:45;;;;;;;6.13;1.27;;;;;;;-0.02;97.97;102748.59;5057829;27;97600;-28
2024/01/20 00:47:11;;;;;;;0.85;0.85;;;;;;;-0.01;97.92;102750.34;5057530;27;98259;-27
2024/01/20 00:49:36;;;;;;;2.30;1.63;;;;;;;0.03;97.36;102751.31;5057743;27;96516;-27
2024/01/20 00:52:01;;;;;;;1.67;1.15;;;;;;;0.06;97.56;102755.78;5057944;27;96805;-28
2024/01/20 00:54:27;;;;;;;4.55;2.92;;;;;;;-0.05;97.37;102761.88;5056901;27;97383;-28
2024/01/20 00:56:52;;;;;;;2.85;2.33;;;;;;;-0.06;97.73;102744.06;5055885;27;100816;-29
2024/01/20 00:59:18;;;;;;;2.30;2.03;;;;;;;-0.04;97.30;102750.31;5057949;27;96534;-27
2024/01/20 01:01:43;;;;;;;5.07;3.33;;;;;;;-0.02;97.72;102759.25;5058117;27;96858;-27
2024/01/20 01:04:08;;;;;;;2.20;1.67;;;;;;;-0.12;98.26;102762.66;5057168;27;99374;-28
2024/01/20 01:06:34;;;;;;;2.50;1.85;;;;;;;-0.26;98.55;102745.59;5057536;27;97793;-28
2024/01/20 01:08:59;;;;;;;6.75;3.58;;;;;;;-0.25;98.79;102750.03;5058076;27;96586;-27
2024/01/20 01:11:24;;;;;;;3.78;2.85;;;;;;;-0.21;98.52;102759.88;5058032;27;96761;-28
2024/01/20 01:13:50;;;;;;;2.55;2.33;;;;;;;-0.26;98.94;102759.81;5056688;27;99550;-27
2024/01/20 01:16:15;;;;;;;1.58;1.35;;;;;;;-0.32;98.93;102749.06;5057707;27;97242;-28
2024/01/20 01:18:40;;;;;;;3.88;1.20;;;;;;;-0.28;99.44;102753.56;5057386;27;96470;-28
2024/01/20 01:21:06;;;;;;;2.75;1.80;;;;;;;-0.18;99.12;102765.22;5057668;27;96716;-27
2024/01/20 01:23:31;;;;;;;6.90;3.67;;;;;;;-0.18;97.83;102765.22;5057611;27;97607;-28
2024/01/20 01:25:57;;;;;;;0.85;0.82;;;;;;;-0.18;98.54;102759.91;5057133;27;97314;-28
2024/01/20 01:28:22;;;;;;;7.50;4.50;;;;;;;-0.12;98.22;102760.00;5057383;27;96490;-27
2024/01/20 01:30:48;;;;;;;5.65;2.53;;;;;;;-0.09;97.89;102764.47;5058122;27;96527;-28
2024/01/20 01:33:13;;;;;;;3.78;3.17;;;;;;;-0.16;97.45;102759.94;5055638;27;101140;-27
2024/01/20 01:35:39;;;;;;;1.90;1.55;;;;;;;-0.23;98.51;102764.28;5056743;27;99139;-27
2024/01/20 01:38:04;;;;;;;2.67;2.47;;;;;;;-0.23;98.41;102758.94;5057099;27;96505;-28
2024/01/20 01:40:29;;;;;;;1.92;1.70;;;;;;;-0.28;99.02;102756.22;5057509;27;96848;-27
2024/01/20 01:42:57;;;;;;;1.33;1.17;;;;;;;-0.23;99.34;102754.50;5056737;27;100690;-28
2024/01/20 01:45:25;;;;;;;0.68;0.60;;;;;;;-0.28;99.69;102756.22;5056559;27;99323;-27
2024/01/20 01:47:54;;;;;;;2.50;2.30;;;;;;;-0.22;99.35;102768.72;5055823;27;96541;-27
2024/01/20 01:50:20;;;;;;;1.17;1.05;;;;;;;-0.32;99.91;102749.06;5055824;27;96797;-27
2024/01/20 01:52:50;;;;;;;3.80;2.30;;;;;;;-0.19;99.29;102766.13;5055048;27;100943;-28
2024/01/20 01:55:16;;;;;;;4.10;1.90;;;;;;;-0.26;99.72;102757.13;5054597;27;101320;-27
2024/01/20 01:57:42;;;;;;;3.55;1.90;;;;;;;-0.27;99.05;102754.44;5055836;27;96716;-27
2024/01/20 02:00:09;;;;;;;3.22;2.70;;;;;;;-0.29;99.38;102766.84;5055644;27;96869;-28
2024/01/20 02:02:34;;;;;;;2.92;2.53;;;;;;;-0.30;99.50;102757.97;5056042;27;99628;-27
2024/01/20 02:05:00;;;;;;;2.47;1.90;;;;;;;-0.24;98.79;102758.06;5056796;27;97137;-27
2024/01/20 02:07:25;;;;;;;2.05;1.75;;;;;;;-0.26;98.74;102754.47;5057347;27;96741;-28
2024/01/20 02:09:50;;;;;;;4.70;2.35;;;;;;;-0.30;100.00;102759.72;5057000;27;96882;-27
2024/01/20 02:12:17;;;;;;;2.83;2.03;;;;;;;-0.29;99.22;102769.50;5056324;27;99482;-29
2024/01/20 02:14:42;;;;;;;2.60;1.92;;;;;;;-0.30;99.63;102765.94;5056347;27;97361;-28
2024/01/20 02:17:08;;;;;;;5.30;3.22;;;;;;;-0.33;98.88;102762.34;5055656;27;96632;-27
2024/01/20 02:19:38;;;;;;;4.13;2.47;;;;;;;-0.26;99.22;102780.22;5058671;27;96836;-27
2024/01/20 02:22:13;;;;;;;5.13;3.58;;;;;;;-0.25;99.66;102774.00;5058463;27;100847;-27
2024/01/20 02:24:40;;;;;;;2.88;2.03;;;;;;;-0.31;99.74;102773.91;5058367;27;100707;-28
2024/01/20 02:27:06;;;;;;;3.30;2.42;;;;;;;-0.29;99.71;102778.38;5058264;27;96631;-27
2024/01/20 02:29:32;;;;;;;2.42;2.00;;;;;;;-0.22;99.56;102787.34;5058889;27;96904;-27
2024/01/20 02:31:57;;;;;;;0.90;0.88;;;;;;;-0.22;99.89;102784.69;5059770;27;97887;-27
2024/01/20 02:34:22;;;;;;;2.78;2.38;;;;;;;-0.22;99.91;102790.00;5059709;27;97322;-28
2024/01/20 02:36:48;;;;;;;3.40;2.08;;;;;;;-0.23;99.25;102786.47;5060046;27;96550;-28
2024/01/20 02:39:13;;;;;;;3.70;2.00;;;;;;;-0.30;99.28;102773.03;5060359;27;96752;-27
2024/01/20 02:41:38;;;;;;;2.30;1.73;;;;;;;-0.23;99.47;102786.47;5059589;27;97844;-27
2024/01/20 02:44:08;;;;;;;1.25;1.15;;;;;;;-0.20;98.72;102782.94;5060032;27;97881;-27
2024/01/20 02:46:33;;;;;;;1.67;1.17;;;;;;;-0.22;98.62;102784.69;5058564;27;96617;-27
2024/01/20 02:48:58;;;;;;;4.72;2.30;;;;;;;-0.24;98.35;102771.38;5060109;27;96772;-27
2024/01/20 02:51:24;;;;;;;4.90;2.25;;;;;;;-0.26;98.88;102786.44;5057661;27;99354;-27
2024/01/20 02:53:49;;;;;;;2.00;1.83;;;;;;;-0.21;99.30;102783.84;5059328;27;97105;-27
2024/01/20 02:56:14;;;;;;;0.70;0.70;;;;;;;-0.22;99.46;102796.22;5059273;27;96807;-27
2024/01/20 02:58:40;;;;;;;2.00;1.52;;;;;;;-0.26;99.05;102782.88;5059730;27;96758;-27
2024/01/20 03:01:06;;;;;;;2.70;2.42;;;;;;;-0.24;99.16;102789.09;5059191;27;99316;-28
2024/01/20 03:03:31;;;;;;;4.40;2.88;;;;;;;-0.21;99.33;102786.50;5057817;27;100930;-27
2024/01/20 03:05:57;;;;;;;4.68;1.80;;;;;;;-0.20;99.84;102793.59;5059878;27;96662;-27
2024/01/20 03:08:22;;;;;;;2.38;1.70;;;;;;;-0.14;99.50;102793.69;5059983;27;96792;-28
2024/01/20 03:10:47;;;;;;;2.92;1.95;;;;;;;-0.18;98.84;102782.97;5058831;27;99189;-27
2024/01/20 03:13:13;;;;;;;2.10;1.88;;;;;;;-0.18;98.77;102785.66;5059405;27;97255;-27
2024/01/20 03:15:38;;;;;;;2.25;1.77;;;;;;;-0.23;99.28;102788.25;5059294;27;96491;-27
2024/01/20 03:18:03;;;;;;;4.47;3.15;;;;;;;-0.21;98.83;102775.84;5059637;27;96809;-27
2024/01/20 03:20:29;;;;;;;5.50;2.00;;;;;;;-0.24;99.96;102789.09;5059020;27;97965;-27
2024/01/20 03:22:55;;;;;;;4.28;2.15;;;;;;;-0.18;99.69;102798.97;5057407;27;100916;-27
2024/01/20 03:25:20;;;;;;;1.50;1.40;;;;;;;-0.23;99.23;102797.13;5059516;27;96427;-27
2024/01/20 03:27:45;;;;;;;4.45;2.85;;;;;;;-0.20;99.21;102796.25;5059499;27;96816;-27
2024/01/20 03:30:11;;;;;;;4.18;2.70;;;;;;;-0.16;98.86;102800.78;5058558;27;99446;-27
2024/01/20 03:32:36;;;;;;;5.15;2.85;;;;;;;-0.20;99.26;102792.72;5058938;27;99155;-27
2024/01/20 03:35:01;;;;;;;4.68;2.03;;;;;;;-0.22;99.01;102788.25;5059147;27;96681;-27
2024/01/20 03:37:29;;;;;;;1.40;1.30;;;;;;;-0.22;99.71;102793.56;5058954;27;96852;-28
2024/01/20 03:39:54;;;;;;;2.00;1.80;;;;;;;-0.16;99.58;102798.09;5056650;27;101155;-27
2024/01/20 03:42:20;;;;;;;0.63;0.63;;;;;;;-0.20;99.13;102801.59;5058528;27;97609;-27
2024/01/20 03:44:45;;;;;;;2.97;1.75;;;;;;;-0.24;98.85;102797.09;5059319;27;96660;-27
2024/01/20 03:47:10;;;;;;;3.60;2.38;;;;;;;-0.23;99.05;102810.44;5059091;27;96788;-28
2024/01/20 03:49:35;;;;;;;1.45;1.35;;;;;;;-0.29;100.00;102817.41;5058648;27;97784;-27
2024/01/20 03:52:01;;;;;;;5.88;2.38;;;;;;;-0.31;99.51;102808.50;5058302;27;103851;-29
2024/01/20 03:54:26;;;;;;;2.30;1.58;;;;;;;-0.33;99.93;102794.31;5058241;27;96466;-29
2024/01/20 03:56:51;;;;;;;4.68;2.35;;;;;;;-0.30;99.83;102811.22;5058966;27;97527;-27
2024/01/20 03:59:17;;;;;;;0.90;0.35;;;;;;;-0.26;99.87;102818.38;5058107;27;99278;-29
2024/01/20 04:01:42;;;;;;;1.17;0.95;;;;;;;-0.27;100.00;102816.56;5058098;27;99213;-28
2024/01/20 04:04:07;;;;;;;3.17;1.83;;;;;;;-0.32;100.00;102817.38;5058363;27;96633;-27
2024/01/20 04:06:33;;;;;;;2.40;2.03;;;;;;;-0.33;99.95;102805.84;5058844;27;96778;-27
2024/01/20 04:08:58;;;;;;;1.35;0.95;;;;;;;-0.28;99.73;102813.91;5058343;27;97857;-27
2024/01/20 04:11:24;;;;;;;1.55;1.30;;;;;;;-0.27;99.06;102810.34;5058091;27;97849;-28
2024/01/20 04:13:49;;;;;;;6.78;2.40;;;;;;;-0.26;99.04;102812.16;5058549;27;96631;-27
2024/01/20 04:16:14;;;;;;;7.72;2.05;;;;;;;-0.26;99.83;102807.72;5058819;27;96843;-27
2024/01/20 04:18:40;;;;;;;3.22;2.05;;;;;;;-0.24;99.36;102815.72;5058232;27;97348;-28
2024/01/20 04:21:05;;;;;;;1.95;1.75;;;;;;;-0.32;99.69;102812.94;5058580;27;97368;-27
2024/01/20 04:23:30;;;;;;;10.07;2.28;;;;;;;-0.25;99.20;102817.50;5058547;27;96585;-27
2024/01/20 04:25:55;;;;;;;2.92;1.15;;;;;;;-0.31;99.60;102809.44;5058322;27;96805;-27
2024/01/20 04:28:21;;;;;;;1.92;1.75;;;;;;;-0.23;99.34;102812.19;5057488;27;97905;-27
2024/01/20 04:30:46;;;;;;;1.95;1.70;;;;;;;-0.22;98.94;102798.00;5057867;27;97367;-27
2024/01/20 04:33:12;;;;;;;1.70;1.52;;;;;;;-0.20;99.33;102806.91;5058149;27;96607;-27
2024/01/20 04:35:37;;;;;;;2.78;1.48;;;;;;;-0.24;99.20;102800.66;5056859;27;96862;-27
2024/01/20 04:38:03;;;;;;;0.90;0.82;;;;;;;-0.16;99.04;102808.75;5057561;27;99331;-27
2024/01/20 04:40:28;;;;;;;1.35;1.17;;;;;;;-0.23;98.54;102804.22;5057274;27;99174;-27
2024/01/20 04:42:54;;;;;;;2.00;1.38;;;;;;;-0.31;98.75;102809.44;5057636;27;96474;-27
2024/01/20 04:45:20;;;;;;;9.77;2.05;;;;;;;-0.32;100.00;102823.59;5058764;27;96467;-27
2024/01/20 04:47:45;;;;;;;6.30;1.88;;;;;;;-0.32;99.70;102822.72;5056261;27;101125;-27
2024/01/20 04:50:11;;;;;;;2.15;1.95;;;;;;;-0.32;99.77;102822.72;5057483;27;99120;-28
2024/01/20 04:52:36;;;;;;;1.90;1.73;;;;;;;-0.32;99.48;102823.59;5057230;27;96706;-27
2024/01/20 04:55:02;;;;;;;0.55;0.55;;;;;;;-0.41;99.94;102810.13;5057489;27;96882;-27
2024/01/20 04:57:28;;;;;;;1.58;1.48;;;;;;;-0.32;99.51;102823.59;5057354;27;99058;-27
2024/01/20 04:59:53;;;;;;;2.65;1.92;;;;;;;-0.35;100.00;102822.66;5057732;27;97790;-27
2024/01/20 05:02:19;;;;;;;1.25;1.15;;;;;;;-0.37;99.70;102827.06;5058077;27;96567;-27
2024/01/20 05:04:44;;;;;;;1.55;1.45;;;;;;;-0.34;99.61;102833.31;5056470;27;96814;-28
2024/01/20 05:07:09;;;;;;;1.45;0.77;;;;;;;-0.38;100.00;102831.50;5057237;27;99260;-27
2024/01/20 05:09:35;;;;;;;5.85;3.63;;;;;;;-0.45;99.47;102834.94;5057474;27;97785;-28
2024/01/20 05:12:00;;;;;;;0.65;0.65;;;;;;;-0.38;100.00;102841.25;5057965;27;96500;-27
2024/01/20 05:14:25;;;;;;;4.40;1.92;;;;;;;-0.37;99.97;102835.06;5057942;27;96774;-27
2024/01/20 05:16:51;;;;;;;1.75;1.52;;;;;;;-0.33;99.20;102836.91;5056874;27;98003;-27
2024/01/20 05:19:16;;;;;;;3.10;2.83;;;;;;;-0.39;99.23;102836.78;5057295;27;97836;-27
2024/01/20 05:21:41;;;;;;;3.17;1.88;;;;;;;-0.36;99.75;102845.72;5057595;27;96488;-27
2024/01/20 05:24:07;;;;;;;3.00;1.98;;;;;;;-0.35;99.76;102850.19;5057831;27;96755;-27
2024/01/20 05:26:32;;;;;;;2.08;1.27;;;;;;;-0.41;99.55;102839.41;5057182;27;97897;-29
2024/01/20 05:28:58;;;;;;;3.28;1.40;;;;;;;-0.41;99.93;102843.84;5056872;27;99205;-28
2024/01/20 05:31:24;;;;;;;3.10;2.22;;;;;;;-0.42;100.00;102845.63;5057896;27;96460;-27
2024/01/20 05:33:50;;;;;;;4.60;2.50;;;;;;;-0.36;99.73;102852.81;5056325;27;97479;-27
2024/01/20 05:36:15;;;;;;;4.00;2.50;;;;;;;-0.37;99.81;102853.69;5056892;27;99341;-27
2024/01/20 05:38:41;;;;;;;0.68;0.68;;;;;;;-0.37;99.89;102859.03;5056481;27;99263;-28
2024/01/20 05:41:07;;;;;;;3.10;1.98;;;;;;;-0.42;100.00;102858.94;5056793;27;96496;-28
2024/01/20 05:43:33;;;;;;;2.20;1.42;;;;;;;-0.41;99.64;102854.50;5055858;27;96888;-27
2024/01/20 05:45:58;;;;;;;2.50;2.00;;;;;;;-0.36;99.92;102867.00;5056621;27;99447;-27
2024/01/20 05:48:24;;;;;;;0.22;0.22;;;;;;;-0.36;100.00;102866.13;5057068;27;97765;-27
2024/01/20 05:50:49;;;;;;;0.90;0.85;;;;;;;-0.32;99.87;102866.19;5057326;27;96432;-27
2024/01/20 05:53:14;;;;;;;2.33;1.20;;;;;;;-0.34;99.40;102869.72;5057220;27;96808;-28
2024/01/20 05:55:40;;;;;;;3.45;2.28;;;;;;;-0.34;99.76;102873.25;5058786;27;99263;-27
2024/01/20 05:58:05;;;;;;;0.63;0.50;;;;;;;-0.30;99.74;102872.44;5060363;27;99354;-27
2024/01/20 06:00:31;;;;;;;1.75;1.55;;;;;;;-0.40;99.99;102858.97;5060879;27;96460;-27
2024/01/20 06:02:56;;;;;;;1.58;1.15;;;;;;;-0.35;99.93;102873.25;5060639;27;96854;-28
2024/01/20 06:05:21;;;;;;;2.00;1.48;;;;;;;-0.39;100.00;102877.63;5059626;27;99241;-27
2024/01/20 06:07:47;;;;;;;2.05;1.33;;;;;;;-0.45;100.00;102875.75;5060239;27;97758;-27
2024/01/20 06:10:12;;;;;;;1.63;1.45;;;;;;;-0.39;99.81;102882.94;5060506;27;96652;-27
2024/01/20 06:12:38;;;;;;;1.33;1.23;;;;;;;-0.36;99.57;102887.41;5060624;27;96784;-28
2024/01/20 06:15:04;;;;;;;2.63;1.42;;;;;;;-0.35;99.71;102886.56;5060219;27;98105;-27
2024/01/20 06:17:29;;;;;;;1.40;1.25;;;;;;;-0.40;99.61;102877.63;5058428;27;101637;-27
2024/01/20 06:19:54;;;;;;;0.80;0.80;;;;;;;-0.39;99.69;102888.28;5060700;27;96503;-27
2024/01/20 06:22:20;;;;;;;3.40;1.63;;;;;;;-0.49;100.00;102887.22;5060688;27;96818;-27
2024/01/20 06:24:45;;;;;;;4.75;3.08;;;;;;;-0.45;100.00;102889.06;5059843;27;98059;-27
2024/01/20 06:27:11;;;;;;;2.97;2.13;;;;;;;-0.50;100.00;102876.53;5059882;27;97337;-27
2024/01/20 06:29:41;;;;;;;1.92;1.83;;;;;;;-0.48;100.00;102874.78;5058177;27;96640;-27
2024/01/20 06:32:06;;;;;;;2.55;1.45;;;;;;;-0.45;100.00;102894.41;5058706;27;96822;-27
2024/01/20 06:34:32;;;;;;;2.83;2.30;;;;;;;-0.44;100.00;102895.28;5059847;27;98082;-27
2024/01/20 06:36:57;;;;;;;1.15;0.75;;;;;;;-0.46;100.00;102899.69;5059879;27;97845;-27
2024/01/20 06:39:22;;;;;;;1.63;1.50;;;;;;;-0.48;100.00;102889.03;5060080;27;96556;-27
2024/01/20 06:41:48;;;;;;;0.98;0.80;;;;;;;-0.37;100.00;102897.19;5060181;27;96924;-27
2024/01/20 06:44:13;;;;;;;1.00;0.90;;;;;;;-0.37;100.00;102888.31;5059398;27;99964;-27
2024/01/20 06:46:38;;;;;;;0.88;0.68;;;;;;;-0.40;99.36;102888.25;5059940;27;97812;-27
2024/01/20 06:49:03;;;;;;;0.80;0.77;;;;;;;-0.47;99.73;102889.91;5060145;27;96504;-27
2024/01/20 06:51:29;;;;;;;2.05;1.10;;;;;;;-0.43;99.85;102895.31;5060386;27;96816;-27
2024/01/20 06:53:57;;;;;;;2.30;1.30;;;;;;;-0.53;99.72;102888.03;5058264;27;104211;-27
2024/01/20 06:56:24;;;;;;;3.03;2.60;;;;;;;-0.54;99.66;102909.31;5059249;27;97913;-27
2024/01/20 06:58:49;;;;;;;3.53;2.90;;;;;;;-0.59;100.00;102897.69;5058273;27;96745;-28
2024/01/20 07:01:16;;;;;;;7.03;1.75;;;;;;;-0.51;99.96;102912.91;5060169;27;96904;-27
2024/01/20 07:03:41;;;;;;;2.97;2.33;;;;;;;-0.53;100.00;102904.00;5057702;27;100995;-27
2024/01/20 07:06:07;;;;;;;4.13;2.13;;;;;;;-0.55;100.00;102910.16;5058875;27;97910;-27
2024/01/20 07:08:32;;;;;;;2.88;1.98;;;;;;;-0.51;100.00;102906.69;5059618;27;96698;-29
2024/01/20 07:10:57;;;;;;;1.08;0.90;;;;;;;-0.54;100.00;102906.66;5060228;27;97318;-27
2024/01/20 07:13:23;;;;;;;1.17;0.90;;;;;;;-0.47;100.00;102909.44;5059137;27;98071;-27
2024/01/20 07:15:48;;;;;;;0.88;0.75;;;;;;;-0.54;100.00;102901.31;5059102;27;97501;-28
2024/01/20 07:18:14;;;;;;;1.83;1.67;;;;;;;-0.56;100.00;102908.38;5059022;27;96534;-27
2024/01/20 07:20:39;;;;;;;2.90;1.63;;;;;;;-0.57;100.00;102912.81;5059355;27;96883;-28
2024/01/20 07:23:04;;;;;;;2.17;1.27;;;;;;;-0.50;100.00;102916.47;5058804;27;97891;-27
2024/01/20 07:25:31;;;;;;;2.67;1.85;;;;;;;-0.49;100.00;102921.81;5059061;27;97775;-27
2024/01/20 07:27:56;;;;;;;2.67;1.73;;;;;;;-0.49;100.00;102913.84;5058022;27;96784;-27
2024/01/20 07:30:22;;;;;;;5.65;2.85;;;;;;;-0.50;100.00;102909.41;5059555;27;96955;-28
2024/01/20 07:32:47;;;;;;;3.50;1.67;;;;;;;-0.56;100.00;102909.28;5058773;27;97934;-27
2024/01/20 07:35:12;;;;;;;2.08;1.50;;;;;;;-0.46;100.00;102915.66;5058888;27;99133;-27
2024/01/20 07:37:38;;;;;;;0.90;0.85;;;;;;;-0.47;100.00;102922.75;5058898;27;96667;-28
2024/01/20 07:40:04;;;;;;;10.27;4.10;;;;;;;-0.45;100.00;102914.81;5059032;27;96899;-27
2024/01/20 07:42:32;;;;;;;3.53;2.15;;;;;;;-0.52;100.00;102913.78;5056606;27;98960;-27
2024/01/20 07:44:59;;;;;;;2.03;1.50;;;;;;;-0.45;100.00;102917.47;5057253;27;101359;-27
2024/01/20 07:47:24;;;;;;;7.90;2.63;;;;;;;-0.43;100.00;102918.34;5057554;27;96642;-28
2024/01/20 07:49:50;;;;;;;4.10;2.58;;;;;;;-0.39;100.00;102916.66;5059130;27;96788;-29
2024/01/20 07:52:15;;;;;;;2.42;2.13;;;;;;;-0.41;100.00;102926.38;5058001;27;99367;-27
2024/01/20 07:54:40;;;;;;;1.70;1.33;;;;;;;-0.38;100.00;102930.00;5055873;27;98773;-27
2024/01/20 07:57:06;;;;;;;1.58;1.48;;;;;;;-0.28;100.00;102936.38;5059227;27;96835;-27
2024/01/20 07:59:31;;;;;;;3.78;1.90;;;;;;;-0.38;100.00;102926.44;5059283;27;96896;-27
2024/01/20 08:01:56;;;;;;;5.75;3.60;;;;;;;-0.41;100.00;102935.25;5058071;27;99198;-27
2024/01/20 08:04:21;;;;;;;2.80;2.58;;;;;;;-0.38;100.00;102935.34;5058385;27;98075;-27
2024/01/20 08:06:47;;;;;;;5.13;2.70;;;;;;;-0.40;100.00;102931.75;5056593;27;96680;-28
2024/01/20 08:09:12;;;;;;;5.38;2.13;;;;;;;-0.40;100.00;102936.19;5058455;27;96854;-27
2024/01/20 08:11:38;;;;;;;2.88;2.15;;;;;;;-0.41;100.00;102931.72;5058388;27;97928;-27
2024/01/20 08:14:03;;;;;;;2.03;1.88;;;;;;;-0.35;100.00;102950.47;5058143;27;97869;-27
2024/01/20 08:16:28;;;;;;;4.55;2.38;;;;;;;-0.34;100.00;102939.81;5057827;27;96577;-27
2024/01/20 08:18:55;;;;;;;1.10;0.73;;;;;;;-0.33;100.00;102938.09;5058668;27;96986;-27
2024/01/20 08:21:21;;;;;;;3.60;2.80;;;;;;;-0.31;100.00;102946.97;5056345;27;101290;-28
2024/01/20 08:23:46;;;;;;;2.45;1.13;;;;;;;-0.23;100.00;102956.88;5058519;27;97360;-27
2024/01/20 08:26:11;;;;;;;6.63;3.28;;;;;;;-0.32;100.00;102950.50;5058408;27;96553;-28
2024/01/20 08:28:37;;;;;;;2.00;1.73;;;;;;;-0.28;100.00;102963.00;5058454;27;96903;-28
2024/01/20 08:31:02;;;;;;;2.10;1.73;;;;;;;-0.28;100.00;102957.69;5057575;27;97978;-27
2024/01/20 08:33:28;;;;;;;7.43;2.85;;;;;;;-0.27;100.00;102957.69;5058071;27;97651;-27
2024/01/20 08:35:53;;;;;;;7.43;3.38;;;;;;;-0.27;100.00;102964.78;5058259;27;96635;-28
2024/01/20 08:38:18;;;;;;;1.67;1.58;;;;;;;-0.35;100.00;102955.78;5058350;27;96925;-27
2024/01/20 08:40:43;;;;;;;1.10;1.00;;;;;;;-0.31;100.00;102957.63;5057860;27;97951;-27
2024/01/20 08:43:09;;;;;;;4.05;3.65;;;;;;;-0.22;100.00;102969.31;5057834;27;97623;-28
2024/01/20 08:45:34;;;;;;;4.13;1.80;;;;;;;-0.19;100.00;102963.19;5058077;27;96513;-27
2024/01/20 08:48:00;;;;;;;1.42;0.95;;;;;;;-0.18;100.00;102956.97;5058662;27;96767;-27
2024/01/20 08:50:26;;;;;;;4.25;2.05;;;;;;;-0.12;100.00;102973.06;5057095;27;98868;-27
2024/01/20 08:52:51;;;;;;;1.73;1.20;;;;;;;-0.11;100.00;102976.63;5057246;27;99148;-27
2024/01/20 08:55:17;;;;;;;1.00;0.77;;;;;;;-0.22;100.00;102964.00;5057332;27;96920;-27
2024/01/20 08:57:42;;;;;;;2.72;2.20;;;;;;;-0.16;100.00;102959.66;5057784;27;96850;-27
2024/01/20 09:00:09;;;;;;;3.85;2.92;;;;;;;0.00;100.00;102969.72;5057330;27;98751;-27
2024/01/20 09:02:34;;;;;;;4.32;2.28;;;;;;;-0.02;100.00;102975.00;5055843;27;100787;-27
2024/01/20 09:05:00;;;;;;;3.65;2.90;;;;;;;-0.06;100.00;102949.19;5058179;27;96653;-27
2024/01/20 09:07:25;;;;;;;2.17;1.58;;;;;;;0.06;100.00;102974.22;5056996;27;96800;-28
2024/01/20 09:09:52;;;;;;;1.40;1.30;;;;;;;0.09;100.00;102953.84;5057542;27;97015;-27
2024/01/20 09:12:18;;;;;;;2.03;1.65;;;;;;;0.18;100.00;102963.78;5056150;27;100904;-28
2024/01/20 09:14:43;;;;;;;1.88;1.77;;;;;;;0.24;100.00;102955.88;5057924;27;96516;-27
2024/01/20 09:17:08;;;;;;;0.63;0.60;;;;;;;0.32;100.00;102964.88;5057735;27;96849;-28
2024/01/20 09:19:34;;;;;;;1.38;1.15;;;;;;;0.32;100.00;102948.88;5056229;27;99406;-27
2024/01/20 09:21:59;;;;;;;4.97;3.95;;;;;;;0.38;100.00;102972.97;5056819;27;101149;-27
2024/01/20 09:24:24;;;;;;;6.43;3.03;;;;;;;0.37;100.00;102970.28;5056432;27;96978;-28
2024/01/20 09:26:50;;;;;;;2.42;1.98;;;;;;;0.45;100.00;102978.38;5053746;27;96946;-28
2024/01/20 09:29:15;;;;;;;7.15;2.80;;;;;;;0.43;100.00;102983.72;5057372;27;97580;-28
2024/01/20 09:31:40;;;;;;;3.13;1.63;;;;;;;0.47;100.00;102987.31;5058332;27;98536;-28
2024/01/20 09:34:06;;;;;;;0.80;0.77;;;;;;;0.49;100.00;102977.56;5055697;27;97032;-28
2024/01/20 09:36:31;;;;;;;0.77;0.57;;;;;;;0.52;100.00;102967.81;5056368;27;96869;-27
2024/01/20 09:38:56;;;;;;;2.50;1.33;;;;;;;0.58;99.89;102967.03;5056082;27;97555;-27
2024/01/20 09:41:23;;;;;;;1.88;1.58;;;;;;;0.66;99.69;102972.47;5057871;27;98798;-27
2024/01/20 09:43:49;;;;;;;3.50;1.52;;;;;;;0.57;99.83;102963.47;5056448;27;96599;-27
2024/01/20 09:46:15;;;;;;;2.47;1.33;;;;;;;0.70;99.65;102982.31;5058176;27;96793;-27
2024/01/20 09:48:43;;;;;;;1.08;0.68;;;;;;;0.66;99.66;102976.03;5056445;27;99034;-27
2024/01/20 09:51:08;;;;;;;2.63;1.13;;;;;;;0.72;99.48;102972.56;5056454;27;100896;-28
2024/01/20 09:53:35;;;;;;;3.13;1.40;;;;;;;0.74;99.41;102974.38;5057546;27;96586;-27
2024/01/20 09:56:01;;;;;;;2.65;1.88;;;;;;;0.79;99.39;102975.31;5055643;27;96884;-27
2024/01/20 09:58:28;;;;;;;5.07;2.20;;;;;;;0.87;99.04;102985.19;5055108;27;99119;-30
2024/01/20 10:00:55;;;;;;;1.52;1.42;;;;;;;0.91;99.16;102971.94;5055443;27;100700;-28
2024/01/20 10:03:24;;;;;;;2.70;1.55;;;;;;;0.97;98.27;102998.66;5055931;27;96597;-27
2024/01/20 10:05:52;;;;;;;6.38;3.85;;;;;;;0.98;97.88;102991.59;5057774;27;96806;-27
2024/01/20 10:08:17;;;;;;;0.35;0.35;;;;;;;1.01;98.01;103003.16;5055756;27;100792;-27
2024/01/20 10:10:42;;;;;;;1.50;0.98;;;;;;;0.96;98.17;102998.66;5057876;27;97758;-27
2024/01/20 10:13:08;;;;;;;1.20;0.73;;;;;;;0.87;98.21;103001.22;5057948;27;96791;-27
2024/01/20 10:15:33;;;;;;;3.92;2.28;;;;;;;0.96;97.93;103006.66;5058073;27;96773;-27
2024/01/20 10:17:59;;;;;;;6.38;2.15;;;;;;;0.99;97.88;103004.91;5057187;27;99210;-28
2024/01/20 10:20:31;;;;;;;2.38;1.40;;;;;;;1.02;97.91;103009.41;5057305;27;99272;-27
2024/01/20 10:23:00;;;;;;;1.98;0.63;;;;;;;0.99;97.57;103004.91;5056326;27;96620;-27
2024/01/20 10:25:25;;;;;;;3.30;2.22;;;;;;;0.94;97.46;102987.97;5056711;27;96810;-27
2024/01/20 10:27:51;;;;;;;11.63;3.90;;;;;;;0.92;97.56;102992.38;5057499;27;97940;-27
2024/01/20 10:30:18;;;;;;;6.10;2.10;;;;;;;1.00;97.90;102990.72;5057252;27;99289;-27
2024/01/20 10:32:46;;;;;;;3.13;1.30;;;;;;;1.05;97.68;102982.78;5055790;27;96607;-27
2024/01/20 10:35:12;;;;;;;4.25;2.10;;;;;;;1.15;97.27;103006.03;5056150;27;96874;-27
2024/01/20 10:37:40;;;;;;;0.52;0.52;;;;;;;1.01;96.74;102989.84;5057317;27;97546;-27
2024/01/20 10:40:12;;;;;;;3.05;2.03;;;;;;;1.14;97.26;103009.56;5054975;27;101138;-30
2024/01/20 10:42:53;;;;;;;;;;;;;;;1.30;97.17;103009.75;5056675;27;97390;-27
2024/01/20 10:45:19;;;;;;;0.20;0.20;;;;;;;1.51;96.86;103001.09;5056318;27;96609;-27
2024/01/20 10:48:06;;;;;;;2.83;1.50;;;;;;;1.51;95.54;103009.09;5056768;27;99288;-27
2024/01/20 10:50:33;;;;;;;2.70;2.15;;;;;;;1.55;95.73;103008.25;5057641;27;97833;-28
2024/01/20 10:52:59;;;;;;;1.00;0.80;;;;;;;1.56;95.22;102997.59;5055754;27;96641;-27
2024/01/20 10:55:25;;;;;;;1.48;0.75;;;;;;;1.49;94.54;102995.72;5056128;27;96779;-27
2024/01/20 10:57:52;;;;;;;2.42;1.02;;;;;;;1.52;95.55;102993.09;5056255;27;98858;-28
2024/01/20 11:00:19;;;;;;;2.20;1.98;;;;;;;1.54;95.17;102996.66;5055445;27;101007;-27
2024/01/20 11:02:45;;;;;;;2.55;2.08;;;;;;;1.69;95.06;102996.84;5055642;27;96649;-27
2024/01/20 11:05:18;;;;;;;3.38;2.42;;;;;;;1.74;94.62;102993.31;5055665;27;96813;-28
2024/01/20 11:07:54;;;;;;;2.78;1.65;;;;;;;1.91;94.64;102995.25;5055195;27;101349;-27
2024/01/20 11:10:22;;;;;;;4.13;2.10;;;;;;;2.01;93.63;102993.56;5055145;27;100834;-27
2024/01/20 11:12:58;;;;;;;1.35;1.25;;;;;;;1.95;93.30;102990.81;5055554;27;96525;-29
2024/01/20 11:15:28;;;;;;;2.67;2.42;;;;;;;2.04;93.57;102990.03;5057216;27;96640;-27
2024/01/20 11:17:54;;;;;;;3.25;1.92;;;;;;;1.97;92.28;102986.41;5057040;27;97320;-27